createdAt,value
2023-03-22T00:00:46.115Z,13.42
2023-03-22T00:05:47.567Z,13.44
2023-03-22T00:10:49.025Z,13.48
2023-03-22T00:15:50.502Z,13.55
2023-03-22T00:20:53.582Z,13.51
2023-03-22T00:25:55.105Z,13.31
2023-03-22T00:30:58.502Z,13.17
2023-03-22T00:36:01.761Z,13.29
2023-03-22T00:41:10.967Z,13.38
2023-03-22T00:46:12.967Z,13.13
2023-03-22T00:51:14.718Z,13.35
2023-03-22T00:56:16.489Z,13.44
2023-03-22T01:01:18.229Z,13.02
2023-03-22T01:06:19.699Z,13.26
2023-03-22T01:11:21.164Z,13.01
2023-03-22T01:16:22.645Z,12.98
2023-03-22T01:21:24.352Z,13.16
2023-03-22T01:26:25.848Z,12.95
2023-03-22T01:31:27.547Z,13.02
2023-03-22T01:36:29.043Z,13.30
2023-03-22T01:41:35.042Z,13.10
2023-03-22T01:46:36.737Z,13.39
2023-03-22T01:51:38.522Z,13.21
2023-03-22T01:56:41.004Z,13.21
2023-03-22T02:01:42.514Z,13.05
2023-03-22T02:06:44.472Z,13.20
2023-03-22T02:12:25.957Z,13.00
2023-03-22T02:17:51.318Z,13.30
2023-03-22T02:23:26.184Z,13.01
2023-03-22T02:28:57.816Z,13.00
2023-03-22T02:34:36.573Z,13.23
2023-03-22T02:39:56.123Z,13.03
2023-03-22T02:45:11.179Z,13.10
2023-03-22T02:50:52.428Z,13.20
2023-03-22T02:56:05.500Z,13.06
2023-03-22T03:01:08.757Z,13.37
2023-03-22T03:06:11.535Z,13.44
2023-03-22T03:11:13.020Z,13.39
2023-03-22T03:16:17.277Z,13.20
2023-03-22T03:21:42.471Z,13.09
2023-03-22T03:27:05.728Z,12.83
2023-03-22T03:32:11.837Z,13.11
2023-03-22T03:37:15.892Z,13.42
2023-03-22T03:42:17.385Z,13.34
2023-03-22T03:47:18.848Z,13.35
2023-03-22T03:52:24.403Z,13.50
2023-03-22T03:57:25.872Z,13.27
2023-03-22T04:02:27.429Z,13.13
2023-03-22T04:07:28.925Z,13.34
2023-03-22T04:12:31.045Z,13.35
2023-03-22T04:17:32.817Z,13.31
2023-03-22T04:22:34.520Z,13.03
2023-03-22T04:27:35.998Z,13.01
2023-03-22T04:32:37.583Z,13.11
2023-03-22T04:37:39.085Z,12.99
2023-03-22T04:42:40.545Z,12.93
2023-03-22T04:47:42.118Z,12.67
2023-03-22T04:52:43.629Z,13.00
2023-03-22T04:57:45.365Z,12.99
2023-03-22T05:02:46.901Z,13.08
2023-03-22T05:07:48.430Z,12.99
2023-03-22T05:12:49.947Z,13.05
2023-03-22T05:17:51.434Z,13.03
2023-03-22T05:22:56.715Z,12.93
2023-03-22T05:28:01.379Z,12.91
2023-03-22T05:33:04.189Z,12.81
2023-03-22T05:38:05.887Z,13.12
2023-03-22T05:43:07.417Z,12.71
2023-03-22T05:48:09.004Z,12.86
2023-03-22T05:53:11.580Z,12.49
2023-03-22T05:58:13.123Z,12.59
2023-03-22T06:03:16.822Z,12.21
2023-03-22T06:08:18.446Z,12.20
2023-03-22T06:13:20.306Z,12.31
2023-03-22T06:18:21.797Z,12.31
2023-03-22T06:23:23.260Z,12.13
2023-03-22T06:28:29.636Z,12.09
2023-03-22T06:33:31.113Z,11.98
2023-03-22T06:38:32.583Z,11.99
2023-03-22T06:43:34.065Z,12.31
2023-03-22T06:48:36.105Z,12.24
2023-03-22T06:53:37.702Z,12.37
2023-03-22T06:58:39.184Z,12.65
2023-03-22T07:03:40.650Z,12.65
2023-03-22T07:08:42.115Z,12.49
2023-03-22T07:13:45.069Z,12.68
2023-03-22T07:18:46.490Z,12.59
2023-03-22T07:23:47.972Z,12.27
2023-03-22T07:28:49.433Z,12.08
2023-03-22T07:33:52.091Z,12.40
2023-03-22T07:38:53.553Z,12.59
2023-03-22T07:44:04.775Z,12.69
2023-03-22T07:49:12.888Z,12.69
2023-03-22T07:54:30.568Z,12.94
2023-03-22T07:59:34.249Z,12.95
2023-03-22T08:04:35.707Z,12.79
2023-03-22T08:09:37.447Z,12.91
2023-03-22T08:14:38.915Z,13.24
2023-03-22T08:19:40.375Z,13.35
2023-03-22T08:24:41.821Z,13.33
2023-03-22T08:29:43.322Z,13.38
2023-03-22T08:34:44.769Z,13.68
2023-03-22T08:39:46.239Z,13.66
2023-03-22T08:44:47.803Z,13.22
2023-03-22T08:49:49.252Z,13.29
2023-03-22T08:54:53.270Z,13.35
2023-03-22T08:59:56.658Z,13.28
2023-03-22T09:04:58.119Z,13.01
2023-03-22T09:09:59.591Z,13.45
2023-03-22T09:15:01.083Z,13.43
2023-03-22T09:20:11.905Z,13.49
2023-03-22T09:25:14.167Z,13.69
2023-03-22T09:30:15.957Z,14.08
2023-03-22T09:35:17.483Z,14.51
2023-03-22T09:40:19.377Z,14.58
2023-03-22T09:45:25.096Z,14.36
2023-03-22T09:50:31.285Z,14.79
2023-03-22T09:55:37.708Z,14.77
2023-03-22T10:00:47.798Z,14.84
2023-03-22T10:06:05.532Z,14.91
2023-03-22T10:11:16.675Z,14.68
2023-03-22T10:16:26.363Z,14.93
2023-03-22T10:21:27.878Z,15.09
2023-03-22T10:26:40.468Z,14.99
2023-03-22T10:31:43.250Z,15.11
2023-03-22T10:36:44.746Z,15.06
2023-03-22T10:41:46.398Z,14.96
2023-03-22T10:46:47.951Z,15.30
2023-03-22T10:51:50.093Z,15.32
2023-03-22T10:56:51.739Z,15.31
2023-03-22T11:01:53.382Z,14.90
2023-03-22T11:06:56.439Z,14.91
2023-03-22T11:11:59.494Z,14.91
2023-03-22T11:17:06.860Z,14.93
2023-03-22T11:22:20.250Z,14.78
2023-03-22T11:27:32.865Z,14.79
2023-03-22T11:32:38.091Z,14.83
2023-03-22T11:37:46.364Z,14.92
2023-03-22T11:42:48.966Z,14.69
2023-03-22T11:47:50.525Z,14.79
2023-03-22T11:52:52.448Z,14.73
2023-03-22T11:57:55.837Z,14.78
2023-03-22T12:03:01.959Z,14.78
2023-03-22T12:08:25.286Z,14.67
2023-03-22T12:13:43.101Z,14.83
2023-03-22T12:18:51.248Z,14.43
2023-03-22T12:23:52.702Z,14.72
2023-03-22T12:28:56.731Z,14.82
2023-03-22T12:34:01.425Z,14.61
2023-03-22T12:39:02.874Z,14.38
2023-03-22T12:44:18.044Z,14.32
2023-03-22T12:49:28.128Z,14.37
2023-03-22T12:54:29.588Z,14.30
2023-03-22T12:59:31.225Z,14.52
2023-03-22T13:04:50.138Z,14.34
2023-03-22T13:09:51.590Z,14.46
2023-03-22T13:14:57.983Z,14.69
2023-03-22T13:20:26.957Z,14.60
2023-03-22T13:25:30.397Z,14.75
2023-03-22T13:30:52.390Z,14.47
2023-03-22T13:35:56.758Z,14.17
2023-03-22T13:41:07.137Z,14.33
2023-03-22T13:46:17.833Z,14.41
2023-03-22T13:51:21.809Z,14.60
2023-03-22T13:56:46.745Z,14.26
2023-03-22T14:02:04.524Z,14.29
2023-03-22T14:07:30.910Z,14.24
2023-03-22T14:12:44.527Z,14.35
2023-03-22T14:18:14.052Z,14.22
